sensor_id;sensor_type;location;lat;lon;timestamp;P1;durP1;ratioP1;P2;durP2;ratioP2
70303;SDS011;57712;48.752;11.348;2023-10-09T00:01:44;10.88;;;4.32;;
70303;SDS011;57712;48.752;11.348;2023-10-09T00:04:13;9.37;;;4.40;;
70303;SDS011;57712;48.752;11.348;2023-10-09T00:06:43;10.57;;;4.22;;
70303;SDS011;57712;48.752;11.348;2023-10-09T00:09:10;10.70;;;4.38;;
70303;SDS011;57712;48.752;11.348;2023-10-09T00:11:49;9.25;;;4.53;;
70303;SDS011;57712;48.752;11.348;2023-10-09T00:14:24;9.73;;;4.50;;
70303;SDS011;57712;48.752;11.348;2023-10-09T00:16:52;9.90;;;4.20;;
70303;SDS011;57712;48.752;11.348;2023-10-09T00:19:37;9.23;;;4.15;;
70303;SDS011;57712;48.752;11.348;2023-10-09T00:22:04;10.77;;;4.57;;
70303;SDS011;57712;48.752;11.348;2023-10-09T00:24:31;10.38;;;4.32;;
70303;SDS011;57712;48.752;11.348;2023-10-09T00:26:59;10.52;;;4.53;;
70303;SDS011;57712;48.752;11.348;2023-10-09T00:29:39;8.80;;;4.30;;
70303;SDS011;57712;48.752;11.348;2023-10-09T00:32:12;10.20;;;4.32;;
70303;SDS011;57712;48.752;11.348;2023-10-09T00:34:49;9.98;;;4.53;;
70303;SDS011;57712;48.752;11.348;2023-10-09T00:37:19;9.38;;;4.63;;
70303;SDS011;57712;48.752;11.348;2023-10-09T00:39:53;9.63;;;4.40;;
70303;SDS011;57712;48.752;11.348;2023-10-09T00:42:26;9.53;;;4.77;;
70303;SDS011;57712;48.752;11.348;2023-10-09T00:44:56;8.63;;;3.95;;
70303;SDS011;57712;48.752;11.348;2023-10-09T00:47:23;8.85;;;4.32;;
70303;SDS011;57712;48.752;11.348;2023-10-09T00:50:00;11.18;;;4.90;;
70303;SDS011;57712;48.752;11.348;2023-10-09T00:52:52;9.27;;;4.05;;
70303;SDS011;57712;48.752;11.348;2023-10-09T00:55:30;11.07;;;4.10;;
70303;SDS011;57712;48.752;11.348;2023-10-09T00:58:11;13.88;;;4.40;;
70303;SDS011;57712;48.752;11.348;2023-10-09T01:00:41;8.40;;;4.20;;
70303;SDS011;57712;48.752;11.348;2023-10-09T01:03:11;9.32;;;4.30;;
70303;SDS011;57712;48.752;11.348;2023-10-09T01:08:24;9.93;;;3.67;;
70303;SDS011;57712;48.752;11.348;2023-10-09T01:11:15;9.05;;;3.97;;
70303;SDS011;57712;48.752;11.348;2023-10-09T01:13:48;9.75;;;4.35;;
70303;SDS011;57712;48.752;11.348;2023-10-09T01:16:21;10.93;;;4.28;;
70303;SDS011;57712;48.752;11.348;2023-10-09T01:18:50;11.85;;;4.60;;
70303;SDS011;57712;48.752;11.348;2023-10-09T01:21:23;7.93;;;4.10;;
70303;SDS011;57712;48.752;11.348;2023-10-09T01:23:52;10.82;;;4.47;;
70303;SDS011;57712;48.752;11.348;2023-10-09T01:26:30;8.70;;;3.78;;
70303;SDS011;57712;48.752;11.348;2023-10-09T01:29:06;8.25;;;3.95;;
70303;SDS011;57712;48.752;11.348;2023-10-09T01:34:28;11.67;;;4.30;;
70303;SDS011;57712;48.752;11.348;2023-10-09T01:37:09;10.95;;;4.50;;
70303;SDS011;57712;48.752;11.348;2023-10-09T01:39:50;8.85;;;4.05;;
70303;SDS011;57712;48.752;11.348;2023-10-09T01:42:25;9.18;;;4.45;;
70303;SDS011;57712;48.752;11.348;2023-10-09T01:45:11;9.35;;;4.47;;
70303;SDS011;57712;48.752;11.348;2023-10-09T01:47:59;9.80;;;4.37;;
70303;SDS011;57712;48.752;11.348;2023-10-09T01:50:31;10.07;;;4.50;;
70303;SDS011;57712;48.752;11.348;2023-10-09T01:53:01;10.68;;;4.07;;
70303;SDS011;57712;48.752;11.348;2023-10-09T01:55:29;10.90;;;4.50;;
70303;SDS011;57712;48.752;11.348;2023-10-09T01:58:06;10.93;;;4.35;;
70303;SDS011;57712;48.752;11.348;2023-10-09T02:00:49;9.90;;;4.07;;
70303;SDS011;57712;48.752;11.348;2023-10-09T02:03:21;9.18;;;4.15;;
70303;SDS011;57712;48.752;11.348;2023-10-09T02:05:53;10.88;;;4.93;;
70303;SDS011;57712;48.752;11.348;2023-10-09T02:08:26;8.38;;;4.10;;
70303;SDS011;57712;48.752;11.348;2023-10-09T02:10:53;9.45;;;4.55;;
70303;SDS011;57712;48.752;11.348;2023-10-09T02:13:23;11.60;;;5.90;;
70303;SDS011;57712;48.752;11.348;2023-10-09T02:15:56;13.50;;;6.00;;
70303;SDS011;57712;48.752;11.348;2023-10-09T02:18:40;39.50;;;18.33;;
70303;SDS011;57712;48.752;11.348;2023-10-09T02:21:28;47.15;;;19.90;;
70303;SDS011;57712;48.752;11.348;2023-10-09T02:24:07;28.88;;;13.43;;
70303;SDS011;57712;48.752;11.348;2023-10-09T02:26:36;20.13;;;9.37;;
70303;SDS011;57712;48.752;11.348;2023-10-09T02:29:26;11.10;;;4.70;;
70303;SDS011;57712;48.752;11.348;2023-10-09T02:31:53;10.20;;;4.30;;
70303;SDS011;57712;48.752;11.348;2023-10-09T02:34:27;9.43;;;4.93;;
70303;SDS011;57712;48.752;11.348;2023-10-09T02:36:55;9.45;;;4.45;;
70303;SDS011;57712;48.752;11.348;2023-10-09T02:39:31;12.37;;;4.10;;
70303;SDS011;57712;48.752;11.348;2023-10-09T02:42:13;8.68;;;3.90;;
70303;SDS011;57712;48.752;11.348;2023-10-09T02:44:40;10.70;;;4.80;;
70303;SDS011;57712;48.752;11.348;2023-10-09T02:47:13;10.90;;;4.47;;
70303;SDS011;57712;48.752;11.348;2023-10-09T02:49:47;11.40;;;4.65;;
70303;SDS011;57712;48.752;11.348;2023-10-09T02:52:17;9.07;;;4.27;;
70303;SDS011;57712;48.752;11.348;2023-10-09T02:54:52;8.68;;;4.07;;
70303;SDS011;57712;48.752;11.348;2023-10-09T02:57:26;10.02;;;4.63;;
70303;SDS011;57712;48.752;11.348;2023-10-09T03:00:05;10.27;;;5.03;;
70303;SDS011;57712;48.752;11.348;2023-10-09T03:02:45;9.48;;;5.10;;
70303;SDS011;57712;48.752;11.348;2023-10-09T03:05:16;12.17;;;5.43;;
70303;SDS011;57712;48.752;11.348;2023-10-09T03:07:44;11.20;;;5.25;;
70303;SDS011;57712;48.752;11.348;2023-10-09T03:10:11;10.27;;;5.20;;
70303;SDS011;57712;48.752;11.348;2023-10-09T03:12:38;12.43;;;5.25;;
70303;SDS011;57712;48.752;11.348;2023-10-09T03:15:06;11.60;;;5.20;;
70303;SDS011;57712;48.752;11.348;2023-10-09T03:17:35;9.93;;;4.43;;
70303;SDS011;57712;48.752;11.348;2023-10-09T03:20:05;12.38;;;5.45;;
70303;SDS011;57712;48.752;11.348;2023-10-09T03:22:39;11.18;;;5.57;;
70303;SDS011;57712;48.752;11.348;2023-10-09T03:25:07;9.88;;;4.95;;
70303;SDS011;57712;48.752;11.348;2023-10-09T03:27:38;11.20;;;5.20;;
70303;SDS011;57712;48.752;11.348;2023-10-09T03:30:08;9.73;;;5.30;;
70303;SDS011;57712;48.752;11.348;2023-10-09T03:32:37;13.40;;;6.07;;
70303;SDS011;57712;48.752;11.348;2023-10-09T03:35:03;14.82;;;6.25;;
70303;SDS011;57712;48.752;11.348;2023-10-09T03:37:33;11.80;;;5.85;;
70303;SDS011;57712;48.752;11.348;2023-10-09T03:40:01;12.48;;;6.05;;
70303;SDS011;57712;48.752;11.348;2023-10-09T03:42:30;13.57;;;5.83;;
70303;SDS011;57712;48.752;11.348;2023-10-09T03:45:00;13.63;;;6.00;;
70303;SDS011;57712;48.752;11.348;2023-10-09T03:47:27;13.20;;;5.93;;
70303;SDS011;57712;48.752;11.348;2023-10-09T03:49:54;11.52;;;5.35;;
70303;SDS011;57712;48.752;11.348;2023-10-09T03:52:25;10.70;;;5.97;;
70303;SDS011;57712;48.752;11.348;2023-10-09T03:54:54;11.63;;;5.57;;
70303;SDS011;57712;48.752;11.348;2023-10-09T03:57:21;12.27;;;5.80;;
70303;SDS011;57712;48.752;11.348;2023-10-09T03:59:50;11.50;;;5.75;;
70303;SDS011;57712;48.752;11.348;2023-10-09T04:02:18;12.35;;;5.75;;
70303;SDS011;57712;48.752;11.348;2023-10-09T04:04:48;11.57;;;5.60;;
70303;SDS011;57712;48.752;11.348;2023-10-09T04:07:18;11.00;;;5.23;;
70303;SDS011;57712;48.752;11.348;2023-10-09T04:09:45;12.25;;;5.88;;
70303;SDS011;57712;48.752;11.348;2023-10-09T04:12:14;13.93;;;5.32;;
70303;SDS011;57712;48.752;11.348;2023-10-09T04:14:48;11.23;;;5.32;;
70303;SDS011;57712;48.752;11.348;2023-10-09T04:17:27;12.65;;;6.03;;
70303;SDS011;57712;48.752;11.348;2023-10-09T04:20:04;12.40;;;5.90;;
70303;SDS011;57712;48.752;11.348;2023-10-09T04:22:44;13.90;;;5.25;;
70303;SDS011;57712;48.752;11.348;2023-10-09T04:25:17;15.18;;;6.40;;
70303;SDS011;57712;48.752;11.348;2023-10-09T04:28:09;15.18;;;6.03;;
70303;SDS011;57712;48.752;11.348;2023-10-09T04:30:38;13.60;;;6.43;;
70303;SDS011;57712;48.752;11.348;2023-10-09T04:33:22;15.40;;;6.40;;
70303;SDS011;57712;48.752;11.348;2023-10-09T04:36:04;17.52;;;5.82;;
70303;SDS011;57712;48.752;11.348;2023-10-09T04:38:45;17.10;;;6.47;;
70303;SDS011;57712;48.752;11.348;2023-10-09T04:41:32;13.45;;;5.07;;
70303;SDS011;57712;48.752;11.348;2023-10-09T04:44:20;13.10;;;5.80;;
70303;SDS011;57712;48.752;11.348;2023-10-09T04:46:51;14.37;;;5.50;;
70303;SDS011;57712;48.752;11.348;2023-10-09T04:49:50;16.83;;;5.70;;
70303;SDS011;57712;48.752;11.348;2023-10-09T04:52:23;15.60;;;6.32;;
70303;SDS011;57712;48.752;11.348;2023-10-09T04:54:56;13.98;;;5.80;;
70303;SDS011;57712;48.752;11.348;2023-10-09T04:57:40;14.27;;;6.22;;
70303;SDS011;57712;48.752;11.348;2023-10-09T05:00:08;15.17;;;6.03;;
70303;SDS011;57712;48.752;11.348;2023-10-09T05:02:55;18.90;;;6.32;;
70303;SDS011;57712;48.752;11.348;2023-10-09T05:05:25;21.90;;;5.72;;
70303;SDS011;57712;48.752;11.348;2023-10-09T05:08:09;16.92;;;6.50;;
70303;SDS011;57712;48.752;11.348;2023-10-09T05:10:49;17.50;;;6.53;;
70303;SDS011;57712;48.752;11.348;2023-10-09T05:13:27;18.47;;;6.43;;
70303;SDS011;57712;48.752;11.348;2023-10-09T05:16:15;16.90;;;5.82;;
70303;SDS011;57712;48.752;11.348;2023-10-09T05:18:46;18.95;;;5.93;;
70303;SDS011;57712;48.752;11.348;2023-10-09T05:21:24;17.27;;;6.03;;
70303;SDS011;57712;48.752;11.348;2023-10-09T05:24:12;18.90;;;6.15;;
70303;SDS011;57712;48.752;11.348;2023-10-09T05:26:43;22.50;;;6.40;;
70303;SDS011;57712;48.752;11.348;2023-10-09T05:29:22;21.42;;;5.57;;
70303;SDS011;57712;48.752;11.348;2023-10-09T05:32:00;15.30;;;5.63;;
70303;SDS011;57712;48.752;11.348;2023-10-09T05:34:46;21.55;;;6.05;;
70303;SDS011;57712;48.752;11.348;2023-10-09T05:37:28;18.13;;;5.47;;
70303;SDS011;57712;48.752;11.348;2023-10-09T05:40:02;20.23;;;5.43;;
70303;SDS011;57712;48.752;11.348;2023-10-09T05:42:42;16.90;;;5.63;;
70303;SDS011;57712;48.752;11.348;2023-10-09T05:45:10;16.55;;;6.13;;
70303;SDS011;57712;48.752;11.348;2023-10-09T05:47:48;17.45;;;5.68;;
70303;SDS011;57712;48.752;11.348;2023-10-09T05:50:35;16.83;;;5.82;;
70303;SDS011;57712;48.752;11.348;2023-10-09T05:53:04;16.63;;;5.50;;
70303;SDS011;57712;48.752;11.348;2023-10-09T05:55:31;17.83;;;5.43;;
70303;SDS011;57712;48.752;11.348;2023-10-09T05:58:16;20.65;;;5.70;;
70303;SDS011;57712;48.752;11.348;2023-10-09T06:01:08;20.70;;;5.82;;
70303;SDS011;57712;48.752;11.348;2023-10-09T06:03:53;17.35;;;5.63;;
70303;SDS011;57712;48.752;11.348;2023-10-09T06:06:21;14.17;;;4.80;;
70303;SDS011;57712;48.752;11.348;2023-10-09T06:09:01;17.90;;;4.93;;
70303;SDS011;57712;48.752;11.348;2023-10-09T06:11:42;17.33;;;4.75;;
70303;SDS011;57712;48.752;11.348;2023-10-09T06:14:21;19.27;;;5.35;;
70303;SDS011;57712;48.752;11.348;2023-10-09T06:16:52;21.55;;;5.43;;
70303;SDS011;57712;48.752;11.348;2023-10-09T06:19:48;14.80;;;4.37;;
70303;SDS011;57712;48.752;11.348;2023-10-09T06:22:15;17.60;;;4.90;;
70303;SDS011;57712;48.752;11.348;2023-10-09T06:25:01;19.15;;;5.38;;
70303;SDS011;57712;48.752;11.348;2023-10-09T06:27:35;16.17;;;4.68;;
70303;SDS011;57712;48.752;11.348;2023-10-09T06:30:02;14.18;;;4.90;;
70303;SDS011;57712;48.752;11.348;2023-10-09T06:32:44;18.93;;;5.00;;
70303;SDS011;57712;48.752;11.348;2023-10-09T06:35:24;13.15;;;4.55;;
70303;SDS011;57712;48.752;11.348;2023-10-09T06:37:58;14.80;;;4.80;;
70303;SDS011;57712;48.752;11.348;2023-10-09T06:40:29;15.70;;;4.75;;
70303;SDS011;57712;48.752;11.348;2023-10-09T06:43:21;13.75;;;5.13;;
70303;SDS011;57712;48.752;11.348;2023-10-09T06:45:49;14.33;;;4.90;;
70303;SDS011;57712;48.752;11.348;2023-10-09T06:48:45;19.27;;;5.53;;
70303;SDS011;57712;48.752;11.348;2023-10-09T06:51:12;16.58;;;4.53;;
70303;SDS011;57712;48.752;11.348;2023-10-09T06:54:02;19.25;;;5.15;;
70303;SDS011;57712;48.752;11.348;2023-10-09T06:56:42;15.70;;;4.82;;
70303;SDS011;57712;48.752;11.348;2023-10-09T06:59:35;17.47;;;5.50;;
70303;SDS011;57712;48.752;11.348;2023-10-09T07:02:31;14.55;;;4.30;;
70303;SDS011;57712;48.752;11.348;2023-10-09T07:05:13;14.23;;;5.07;;
70303;SDS011;57712;48.752;11.348;2023-10-09T07:07:44;18.20;;;5.20;;
70303;SDS011;57712;48.752;11.348;2023-10-09T07:10:22;19.30;;;4.72;;
70303;SDS011;57712;48.752;11.348;2023-10-09T07:12:59;19.40;;;5.00;;
70303;SDS011;57712;48.752;11.348;2023-10-09T07:15:31;14.60;;;4.47;;
70303;SDS011;57712;48.752;11.348;2023-10-09T07:18:16;18.60;;;4.78;;
70303;SDS011;57712;48.752;11.348;2023-10-09T07:20:46;13.27;;;4.45;;
70303;SDS011;57712;48.752;11.348;2023-10-09T07:23:26;18.48;;;5.70;;
70303;SDS011;57712;48.752;11.348;2023-10-09T07:26:03;20.83;;;5.40;;
70303;SDS011;57712;48.752;11.348;2023-10-09T07:28:50;17.08;;;4.80;;
70303;SDS011;57712;48.752;11.348;2023-10-09T07:31:17;13.80;;;5.30;;
70303;SDS011;57712;48.752;11.348;2023-10-09T07:33:51;15.65;;;4.72;;
70303;SDS011;57712;48.752;11.348;2023-10-09T07:36:24;19.13;;;5.00;;
70303;SDS011;57712;48.752;11.348;2023-10-09T07:39:02;19.07;;;5.30;;
70303;SDS011;57712;48.752;11.348;2023-10-09T07:41:40;15.20;;;5.13;;
70303;SDS011;57712;48.752;11.348;2023-10-09T07:44:11;17.70;;;4.82;;
70303;SDS011;57712;48.752;11.348;2023-10-09T07:47:04;20.50;;;4.40;;
70303;SDS011;57712;48.752;11.348;2023-10-09T07:49:43;17.95;;;4.53;;
70303;SDS011;57712;48.752;11.348;2023-10-09T07:52:15;15.50;;;4.70;;
70303;SDS011;57712;48.752;11.348;2023-10-09T07:54:42;14.10;;;4.50;;
70303;SDS011;57712;48.752;11.348;2023-10-09T07:57:16;15.50;;;5.03;;
70303;SDS011;57712;48.752;11.348;2023-10-09T07:59:43;14.95;;;4.80;;
70303;SDS011;57712;48.752;11.348;2023-10-09T08:02:28;20.00;;;4.93;;
70303;SDS011;57712;48.752;11.348;2023-10-09T08:05:01;12.20;;;4.40;;
70303;SDS011;57712;48.752;11.348;2023-10-09T08:07:33;14.60;;;4.53;;
70303;SDS011;57712;48.752;11.348;2023-10-09T08:10:23;18.73;;;4.47;;
70303;SDS011;57712;48.752;11.348;2023-10-09T08:12:49;14.20;;;4.50;;
70303;SDS011;57712;48.752;11.348;2023-10-09T08:15:16;17.23;;;5.10;;
70303;SDS011;57712;48.752;11.348;2023-10-09T08:17:48;15.77;;;4.63;;
70303;SDS011;57712;48.752;11.348;2023-10-09T08:20:31;16.95;;;4.85;;
70303;SDS011;57712;48.752;11.348;2023-10-09T08:23:16;17.48;;;5.07;;
70303;SDS011;57712;48.752;11.348;2023-10-09T08:26:02;15.02;;;4.50;;
70303;SDS011;57712;48.752;11.348;2023-10-09T08:28:41;16.63;;;4.82;;
70303;SDS011;57712;48.752;11.348;2023-10-09T08:31:13;19.37;;;4.20;;
70303;SDS011;57712;48.752;11.348;2023-10-09T08:34:00;16.58;;;4.00;;
70303;SDS011;57712;48.752;11.348;2023-10-09T08:36:30;15.25;;;3.92;;
70303;SDS011;57712;48.752;11.348;2023-10-09T08:39:09;12.85;;;4.38;;
70303;SDS011;57712;48.752;11.348;2023-10-09T08:41:51;19.08;;;4.88;;
70303;SDS011;57712;48.752;11.348;2023-10-09T08:44:25;17.77;;;4.37;;
70303;SDS011;57712;48.752;11.348;2023-10-09T08:46:59;18.20;;;4.43;;
70303;SDS011;57712;48.752;11.348;2023-10-09T08:49:26;17.10;;;4.35;;
70303;SDS011;57712;48.752;11.348;2023-10-09T08:51:54;18.35;;;5.00;;
70303;SDS011;57712;48.752;11.348;2023-10-09T08:54:43;17.02;;;4.65;;
70303;SDS011;57712;48.752;11.348;2023-10-09T08:57:10;17.70;;;4.93;;
70303;SDS011;57712;48.752;11.348;2023-10-09T08:59:40;13.73;;;3.97;;
70303;SDS011;57712;48.752;11.348;2023-10-09T09:02:12;16.55;;;4.38;;
70303;SDS011;57712;48.752;11.348;2023-10-09T09:04:42;15.43;;;4.40;;
70303;SDS011;57712;48.752;11.348;2023-10-09T09:07:28;16.98;;;3.85;;
70303;SDS011;57712;48.752;11.348;2023-10-09T09:09:58;21.07;;;4.63;;
70303;SDS011;57712;48.752;11.348;2023-10-09T09:12:44;17.30;;;3.88;;
70303;SDS011;57712;48.752;11.348;2023-10-09T09:15:14;19.58;;;4.32;;
70303;SDS011;57712;48.752;11.348;2023-10-09T09:17:46;15.10;;;4.03;;
70303;SDS011;57712;48.752;11.348;2023-10-09T09:20:23;20.38;;;4.30;;
70303;SDS011;57712;48.752;11.348;2023-10-09T09:23:12;14.50;;;4.30;;
70303;SDS011;57712;48.752;11.348;2023-10-09T09:25:43;16.02;;;4.55;;
70303;SDS011;57712;48.752;11.348;2023-10-09T09:28:12;16.02;;;3.75;;
70303;SDS011;57712;48.752;11.348;2023-10-09T09:30:39;14.98;;;4.72;;
70303;SDS011;57712;48.752;11.348;2023-10-09T09:33:17;17.70;;;4.80;;
70303;SDS011;57712;48.752;11.348;2023-10-09T09:35:59;17.47;;;4.97;;
70303;SDS011;57712;48.752;11.348;2023-10-09T09:38:34;15.07;;;4.55;;
70303;SDS011;57712;48.752;11.348;2023-10-09T09:41:15;16.98;;;4.10;;
70303;SDS011;57712;48.752;11.348;2023-10-09T09:43:55;16.58;;;4.00;;
70303;SDS011;57712;48.752;11.348;2023-10-09T09:46:37;16.52;;;4.03;;
70303;SDS011;57712;48.752;11.348;2023-10-09T09:49:10;15.87;;;4.63;;
70303;SDS011;57712;48.752;11.348;2023-10-09T09:51:43;13.52;;;3.78;;
70303;SDS011;57712;48.752;11.348;2023-10-09T09:54:15;14.55;;;3.95;;
70303;SDS011;57712;48.752;11.348;2023-10-09T09:56:44;19.80;;;4.10;;
70303;SDS011;57712;48.752;11.348;2023-10-09T09:59:17;19.48;;;4.60;;
70303;SDS011;57712;48.752;11.348;2023-10-09T10:01:54;19.50;;;4.17;;
70303;SDS011;57712;48.752;11.348;2023-10-09T10:04:26;15.68;;;4.78;;
70303;SDS011;57712;48.752;11.348;2023-10-09T10:06:56;15.02;;;4.43;;
70303;SDS011;57712;48.752;11.348;2023-10-09T10:09:40;16.67;;;4.22;;
70303;SDS011;57712;48.752;11.348;2023-10-09T10:12:08;15.02;;;3.75;;
70303;SDS011;57712;48.752;11.348;2023-10-09T10:20:25;15.38;;;4.05;;
70303;SDS011;57712;48.752;11.348;2023-10-09T10:23:14;17.23;;;3.30;;
70303;SDS011;57712;48.752;11.348;2023-10-09T10:25:45;14.93;;;3.60;;
70303;SDS011;57712;48.752;11.348;2023-10-09T10:28:19;18.37;;;3.93;;
70303;SDS011;57712;48.752;11.348;2023-10-09T10:30:55;16.15;;;3.78;;
70303;SDS011;57712;48.752;11.348;2023-10-09T10:33:27;16.20;;;4.13;;
70303;SDS011;57712;48.752;11.348;2023-10-09T10:36:13;15.68;;;3.88;;
70303;SDS011;57712;48.752;11.348;2023-10-09T10:41:37;19.07;;;3.93;;
70303;SDS011;57712;48.752;11.348;2023-10-09T10:44:27;14.93;;;3.88;;
70303;SDS011;57712;48.752;11.348;2023-10-09T10:47:06;15.48;;;3.92;;
70303;SDS011;57712;48.752;11.348;2023-10-09T10:49:50;14.75;;;3.40;;
70303;SDS011;57712;48.752;11.348;2023-10-09T10:52:22;49.40;;;6.47;;
70303;SDS011;57712;48.752;11.348;2023-10-09T10:54:49;18.80;;;3.30;;
70303;SDS011;57712;48.752;11.348;2023-10-09T10:57:44;17.10;;;3.70;;
70303;SDS011;57712;48.752;11.348;2023-10-09T11:00:22;15.38;;;3.78;;
70303;SDS011;57712;48.752;11.348;2023-10-09T11:03:07;15.65;;;3.90;;
70303;SDS011;57712;48.752;11.348;2023-10-09T11:05:43;13.40;;;3.70;;
70303;SDS011;57712;48.752;11.348;2023-10-09T11:08:18;13.93;;;3.57;;
70303;SDS011;57712;48.752;11.348;2023-10-09T11:10:50;14.40;;;3.92;;
70303;SDS011;57712;48.752;11.348;2023-10-09T11:13:21;13.73;;;3.67;;
70303;SDS011;57712;48.752;11.348;2023-10-09T11:16:04;14.68;;;3.33;;
70303;SDS011;57712;48.752;11.348;2023-10-09T11:18:55;17.67;;;3.92;;
70303;SDS011;57712;48.752;11.348;2023-10-09T11:21:23;17.93;;;3.60;;
70303;SDS011;57712;48.752;11.348;2023-10-09T11:23:57;18.98;;;3.78;;
70303;SDS011;57712;48.752;11.348;2023-10-09T11:26:25;18.48;;;3.97;;
70303;SDS011;57712;48.752;11.348;2023-10-09T11:29:10;13.73;;;3.60;;
70303;SDS011;57712;48.752;11.348;2023-10-09T11:34:32;16.30;;;4.33;;
70303;SDS011;57712;48.752;11.348;2023-10-09T11:37:12;16.25;;;3.42;;
70303;SDS011;57712;48.752;11.348;2023-10-09T11:39:42;14.65;;;4.07;;
70303;SDS011;57712;48.752;11.348;2023-10-09T11:42:23;19.85;;;3.97;;
70303;SDS011;57712;48.752;11.348;2023-10-09T11:45:03;16.60;;;3.70;;
70303;SDS011;57712;48.752;11.348;2023-10-09T11:47:51;16.13;;;3.30;;
70303;SDS011;57712;48.752;11.348;2023-10-09T11:50:38;16.30;;;3.60;;
70303;SDS011;57712;48.752;11.348;2023-10-09T11:53:28;16.75;;;3.80;;
70303;SDS011;57712;48.752;11.348;2023-10-09T11:55:55;14.07;;;3.80;;
70303;SDS011;57712;48.752;11.348;2023-10-09T11:58:22;18.33;;;3.70;;
70303;SDS011;57712;48.752;11.348;2023-10-09T12:00:56;14.97;;;4.47;;
70303;SDS011;57712;48.752;11.348;2023-10-09T12:03:32;14.60;;;3.55;;
70303;SDS011;57712;48.752;11.348;2023-10-09T12:06:03;13.82;;;3.88;;
70303;SDS011;57712;48.752;11.348;2023-10-09T12:08:38;18.20;;;3.60;;
70303;SDS011;57712;48.752;11.348;2023-10-09T12:11:08;15.32;;;4.22;;
70303;SDS011;57712;48.752;11.348;2023-10-09T12:13:36;14.90;;;4.07;;
70303;SDS011;57712;48.752;11.348;2023-10-09T12:16:08;16.88;;;3.45;;
70303;SDS011;57712;48.752;11.348;2023-10-09T12:18:41;13.77;;;3.28;;
70303;SDS011;57712;48.752;11.348;2023-10-09T12:21:09;18.58;;;3.80;;
70303;SDS011;57712;48.752;11.348;2023-10-09T12:23:42;17.30;;;4.28;;
70303;SDS011;57712;48.752;11.348;2023-10-09T12:26:11;15.60;;;3.43;;
70303;SDS011;57712;48.752;11.348;2023-10-09T12:28:41;14.60;;;3.95;;
70303;SDS011;57712;48.752;11.348;2023-10-09T12:31:13;18.45;;;4.05;;
70303;SDS011;57712;48.752;11.348;2023-10-09T12:33:46;18.00;;;3.92;;
70303;SDS011;57712;48.752;11.348;2023-10-09T12:36:18;13.50;;;3.30;;
70303;SDS011;57712;48.752;11.348;2023-10-09T12:38:47;14.17;;;3.37;;
70303;SDS011;57712;48.752;11.348;2023-10-09T12:41:20;16.70;;;4.05;;
70303;SDS011;57712;48.752;11.348;2023-10-09T12:43:55;18.02;;;3.58;;
70303;SDS011;57712;48.752;11.348;2023-10-09T12:46:24;18.85;;;4.18;;
70303;SDS011;57712;48.752;11.348;2023-10-09T12:48:54;13.55;;;3.42;;
70303;SDS011;57712;48.752;11.348;2023-10-09T12:51:22;11.80;;;3.30;;
70303;SDS011;57712;48.752;11.348;2023-10-09T12:53:56;18.88;;;3.70;;
70303;SDS011;57712;48.752;11.348;2023-10-09T12:56:24;15.52;;;4.07;;
70303;SDS011;57712;48.752;11.348;2023-10-09T12:58:59;16.83;;;3.97;;
70303;SDS011;57712;48.752;11.348;2023-10-09T13:01:28;14.57;;;3.40;;
70303;SDS011;57712;48.752;11.348;2023-10-09T13:04:10;17.43;;;3.83;;
70303;SDS011;57712;48.752;11.348;2023-10-09T13:06:43;19.58;;;3.72;;
70303;SDS011;57712;48.752;11.348;2023-10-09T13:09:11;20.20;;;3.80;;
70303;SDS011;57712;48.752;11.348;2023-10-09T13:11:40;18.48;;;3.53;;
70303;SDS011;57712;48.752;11.348;2023-10-09T13:14:07;14.38;;;3.55;;
70303;SDS011;57712;48.752;11.348;2023-10-09T13:16:48;17.90;;;3.23;;
70303;SDS011;57712;48.752;11.348;2023-10-09T13:19:20;20.77;;;4.10;;
70303;SDS011;57712;48.752;11.348;2023-10-09T13:21:51;18.42;;;4.13;;
70303;SDS011;57712;48.752;11.348;2023-10-09T13:24:17;19.90;;;3.97;;
70303;SDS011;57712;48.752;11.348;2023-10-09T13:26:50;16.15;;;3.78;;
70303;SDS011;57712;48.752;11.348;2023-10-09T13:29:24;15.47;;;4.50;;
70303;SDS011;57712;48.752;11.348;2023-10-09T13:31:51;18.23;;;3.75;;
70303;SDS011;57712;48.752;11.348;2023-10-09T13:34:29;16.10;;;3.58;;
70303;SDS011;57712;48.752;11.348;2023-10-09T13:36:56;17.65;;;4.18;;
70303;SDS011;57712;48.752;11.348;2023-10-09T13:39:35;18.27;;;3.92;;
70303;SDS011;57712;48.752;11.348;2023-10-09T13:42:06;18.23;;;4.10;;
70303;SDS011;57712;48.752;11.348;2023-10-09T13:44:34;14.90;;;3.88;;
70303;SDS011;57712;48.752;11.348;2023-10-09T13:47:03;16.08;;;3.67;;
70303;SDS011;57712;48.752;11.348;2023-10-09T13:49:35;16.63;;;3.63;;
70303;SDS011;57712;48.752;11.348;2023-10-09T13:52:09;17.00;;;3.63;;
70303;SDS011;57712;48.752;11.348;2023-10-09T13:54:35;17.13;;;3.50;;
70303;SDS011;57712;48.752;11.348;2023-10-09T13:57:02;17.27;;;3.70;;
70303;SDS011;57712;48.752;11.348;2023-10-09T13:59:34;19.08;;;3.65;;
70303;SDS011;57712;48.752;11.348;2023-10-09T14:02:02;19.45;;;3.67;;
70303;SDS011;57712;48.752;11.348;2023-10-09T14:04:36;17.52;;;3.78;;
70303;SDS011;57712;48.752;11.348;2023-10-09T14:07:04;18.57;;;3.80;;
70303;SDS011;57712;48.752;11.348;2023-10-09T14:09:33;15.27;;;3.10;;
70303;SDS011;57712;48.752;11.348;2023-10-09T14:12:11;16.42;;;4.80;;
70303;SDS011;57712;48.752;11.348;2023-10-09T14:14:41;16.00;;;4.03;;
70303;SDS011;57712;48.752;11.348;2023-10-09T14:17:16;14.93;;;3.55;;
70303;SDS011;57712;48.752;11.348;2023-10-09T14:19:54;14.80;;;3.30;;
70303;SDS011;57712;48.752;11.348;2023-10-09T14:22:27;17.52;;;3.90;;
70303;SDS011;57712;48.752;11.348;2023-10-09T14:24:56;17.77;;;3.53;;
70303;SDS011;57712;48.752;11.348;2023-10-09T14:27:24;16.77;;;3.80;;
70303;SDS011;57712;48.752;11.348;2023-10-09T14:29:53;20.70;;;3.70;;
70303;SDS011;57712;48.752;11.348;2023-10-09T14:32:23;18.53;;;3.83;;
70303;SDS011;57712;48.752;11.348;2023-10-09T14:34:56;15.40;;;3.78;;
70303;SDS011;57712;48.752;11.348;2023-10-09T14:37:28;16.92;;;4.10;;
70303;SDS011;57712;48.752;11.348;2023-10-09T14:39:55;19.08;;;3.42;;
70303;SDS011;57712;48.752;11.348;2023-10-09T14:42:25;16.95;;;4.03;;
70303;SDS011;57712;48.752;11.348;2023-10-09T14:44:54;16.90;;;3.10;;
70303;SDS011;57712;48.752;11.348;2023-10-09T14:47:22;20.45;;;3.78;;
70303;SDS011;57712;48.752;11.348;2023-10-09T14:49:49;16.58;;;3.72;;
70303;SDS011;57712;48.752;11.348;2023-10-09T14:52:16;16.80;;;3.80;;
70303;SDS011;57712;48.752;11.348;2023-10-09T14:54:43;12.95;;;3.65;;
70303;SDS011;57712;48.752;11.348;2023-10-09T14:57:13;19.07;;;3.50;;
70303;SDS011;57712;48.752;11.348;2023-10-09T14:59:40;17.40;;;4.05;;
70303;SDS011;57712;48.752;11.348;2023-10-09T15:02:09;16.20;;;4.03;;
70303;SDS011;57712;48.752;11.348;2023-10-09T15:04:39;20.20;;;5.32;;
70303;SDS011;57712;48.752;11.348;2023-10-09T15:07:06;20.25;;;4.93;;
70303;SDS011;57712;48.752;11.348;2023-10-09T15:09:34;20.30;;;5.93;;
70303;SDS011;57712;48.752;11.348;2023-10-09T15:12:03;31.55;;;10.23;;
70303;SDS011;57712;48.752;11.348;2023-10-09T15:14:33;22.45;;;6.07;;
70303;SDS011;57712;48.752;11.348;2023-10-09T15:17:00;24.45;;;8.73;;
70303;SDS011;57712;48.752;11.348;2023-10-09T15:19:27;20.40;;;6.03;;
70303;SDS011;57712;48.752;11.348;2023-10-09T15:21:57;15.40;;;4.10;;
70303;SDS011;57712;48.752;11.348;2023-10-09T15:24:26;19.17;;;3.42;;